Más de esta sección

METAR - AERONAUTICA

SADR31 MDSD 041800Z
METAR
METAR MDPP 041800Z 09012KT 9999 SCT020 28/24 Q1012=

METAR MDST 041800Z 29006KT 230V030 9999 SCT025 28/20 Q1011=
METAR MDPC 041800Z 35009KT 9999 SCT022 28/20 Q1011=
METAR MDBH 041800Z 27005KT 9999 FEW022 34/26 Q1009=
METAR MDJB 041800Z 03015KT 9999 SCT020 30/23 Q1010=
METAR MDSD 041800Z 36010KT 9999 SCT023 30/22 Q1011=
METAR MDLR 041800Z 36006KT 9999 FEW020CB BKN022 29/21 Q1010
CB/E/SW/NW=
METAR MDCY 041800Z 09012KT 8000 VCSH FEW016CB SCT018 27/22 Q1011 CB/SW=
METAR MDAB 041800Z 02010KT 9999 SCT018 30/24 Q1012=